Pagrindinis puslapis
METAR-TAF:

METAR-TAF

Oro uostai :

Isfahanas, Iranas

platuma: 32-28N, ilguma: 051-43E, Aukštis: 1590 m

Dabartinis oras

Ataskaita buvo paskelbta 30 minutes, ne 22:00 UTC
Vėjas 6 kt iš Šiaurės Vakarų
Temperatūra 15°C
Drėgmė 27%
Slėgis 1019 hPa
Matomumas: 8000 m

METAR: OIFM 242200Z 31006KT 8000 NSC 15/M04 Q1018 A3009

Laikas: 02:00 (22:30 UTC)

Prognozė

Ataskaita buvo paskelbta 5 valandos ir 0 minutes, ne 17:30 UTC
Prognozė galioja nuo 24 metu 18 UTC su 25 metu 24 UTC
Vėjas 8 kt iš Vakarų
Matomumas: 7000 m
Laikinai
nuo 25 metu 01 UTC su 25 metu 05 UTC
Matomumas: 5000 m
migla
Tapsmas
nuo 25 metu 08 UTC su 25 metu 10 UTC
Vėjas 8 kt iš Rytų/Pietryčių

TAF: OIFM 241730Z 2418/2524 28008KT 7000 NSC TEMPO 2501/2505 5000 HZ BECMG 2508/2510 12008KT

Orai ataskaitas ir orų prognozės (METAR, TAF).

turimą stotys yra geltonos ir raudonos taškus žemėlapyje.

Perkelti pele per norėdami pamatyti stoties vardą.

Tada spustelėkite, norėdami matyti oro stebėjimo ir prognozės.

Norėdami pakeisti žemėlapį: spustelėkite ant žalios mygtukų su juodo kryžiaus žemyn,; žalią mygtuką su brūkšneliu, jei norite nutolinti; arba žalių rodyklių gretimoms žemėlapius.


METAR-TAF: